sensor_id;sensor_type;location;lat;lon;timestamp;P1;durP1;ratioP1;P2;durP2;ratioP2
22160;SDS011;49035;48.812;11.762;2022-11-15T00:01:36;30.33;;;16.10;;
22160;SDS011;49035;48.812;11.762;2022-11-15T00:04:02;30.27;;;15.80;;
22160;SDS011;49035;48.812;11.762;2022-11-15T00:06:29;30.87;;;17.50;;
22160;SDS011;49035;48.812;11.762;2022-11-15T00:08:54;26.17;;;15.30;;
22160;SDS011;49035;48.812;11.762;2022-11-15T00:11:22;29.20;;;15.53;;
22160;SDS011;49035;48.812;11.762;2022-11-15T00:13:48;25.10;;;14.40;;
22160;SDS011;49035;48.812;11.762;2022-11-15T00:16:13;26.60;;;15.80;;
22160;SDS011;49035;48.812;11.762;2022-11-15T00:18:39;30.10;;;17.17;;
22160;SDS011;49035;48.812;11.762;2022-11-15T00:21:06;28.07;;;16.83;;
22160;SDS011;49035;48.812;11.762;2022-11-15T00:23:34;30.37;;;15.67;;
22160;SDS011;49035;48.812;11.762;2022-11-15T00:26:00;27.53;;;15.50;;
22160;SDS011;49035;48.812;11.762;2022-11-15T00:28:25;31.37;;;16.37;;
22160;SDS011;49035;48.812;11.762;2022-11-15T00:30:51;27.20;;;15.63;;
22160;SDS011;49035;48.812;11.762;2022-11-15T00:33:17;29.23;;;16.07;;
22160;SDS011;49035;48.812;11.762;2022-11-15T00:35:43;26.43;;;15.63;;
22160;SDS011;49035;48.812;11.762;2022-11-15T00:38:08;23.17;;;12.27;;
22160;SDS011;49035;48.812;11.762;2022-11-15T00:40:34;23.50;;;12.60;;
22160;SDS011;49035;48.812;11.762;2022-11-15T00:43:00;24.63;;;13.57;;
22160;SDS011;49035;48.812;11.762;2022-11-15T00:45:25;22.80;;;13.70;;
22160;SDS011;49035;48.812;11.762;2022-11-15T00:47:51;24.83;;;12.03;;
22160;SDS011;49035;48.812;11.762;2022-11-15T00:50:17;23.30;;;13.47;;
22160;SDS011;49035;48.812;11.762;2022-11-15T00:52:43;23.27;;;12.93;;
22160;SDS011;49035;48.812;11.762;2022-11-15T00:55:13;26.53;;;14.97;;
22160;SDS011;49035;48.812;11.762;2022-11-15T00:57:40;26.00;;;15.40;;
22160;SDS011;49035;48.812;11.762;2022-11-15T01:00:05;24.80;;;13.57;;
22160;SDS011;49035;48.812;11.762;2022-11-15T01:02:32;25.40;;;14.53;;
22160;SDS011;49035;48.812;11.762;2022-11-15T01:04:57;27.90;;;15.30;;
22160;SDS011;49035;48.812;11.762;2022-11-15T01:07:23;23.93;;;13.83;;
22160;SDS011;49035;48.812;11.762;2022-11-15T01:09:49;24.37;;;13.93;;
22160;SDS011;49035;48.812;11.762;2022-11-15T01:12:14;23.17;;;13.80;;
22160;SDS011;49035;48.812;11.762;2022-11-15T01:14:40;24.83;;;13.13;;
22160;SDS011;49035;48.812;11.762;2022-11-15T01:17:05;23.00;;;12.57;;
22160;SDS011;49035;48.812;11.762;2022-11-15T01:19:31;22.53;;;12.80;;
22160;SDS011;49035;48.812;11.762;2022-11-15T01:21:57;20.93;;;13.13;;
22160;SDS011;49035;48.812;11.762;2022-11-15T01:24:22;22.90;;;14.00;;
22160;SDS011;49035;48.812;11.762;2022-11-15T01:26:48;20.47;;;13.17;;
22160;SDS011;49035;48.812;11.762;2022-11-15T01:29:13;22.70;;;12.33;;
22160;SDS011;49035;48.812;11.762;2022-11-15T01:31:39;24.83;;;13.43;;
22160;SDS011;49035;48.812;11.762;2022-11-15T01:34:04;22.30;;;13.40;;
22160;SDS011;49035;48.812;11.762;2022-11-15T01:36:30;20.07;;;11.60;;
22160;SDS011;49035;48.812;11.762;2022-11-15T01:38:56;19.13;;;12.47;;
22160;SDS011;49035;48.812;11.762;2022-11-15T01:41:24;24.73;;;13.30;;
22160;SDS011;49035;48.812;11.762;2022-11-15T01:43:52;20.43;;;12.37;;
22160;SDS011;49035;48.812;11.762;2022-11-15T01:46:24;19.00;;;12.03;;
22160;SDS011;49035;48.812;11.762;2022-11-15T01:48:53;20.97;;;12.93;;
22160;SDS011;49035;48.812;11.762;2022-11-15T01:51:23;25.80;;;12.77;;
22160;SDS011;49035;48.812;11.762;2022-11-15T01:53:51;21.97;;;13.03;;
22160;SDS011;49035;48.812;11.762;2022-11-15T01:56:21;24.50;;;12.83;;
22160;SDS011;49035;48.812;11.762;2022-11-15T01:58:50;24.67;;;14.10;;
22160;SDS011;49035;48.812;11.762;2022-11-15T02:03:56;18.33;;;11.97;;
22160;SDS011;49035;48.812;11.762;2022-11-15T02:06:24;18.57;;;11.07;;
22160;SDS011;49035;48.812;11.762;2022-11-15T02:08:50;18.83;;;12.07;;
22160;SDS011;49035;48.812;11.762;2022-11-15T02:11:17;25.40;;;12.00;;
22160;SDS011;49035;48.812;11.762;2022-11-15T02:13:42;21.20;;;12.43;;
22160;SDS011;49035;48.812;11.762;2022-11-15T02:19:12;18.13;;;10.70;;
22160;SDS011;49035;48.812;11.762;2022-11-15T02:22:14;18.80;;;10.97;;
22160;SDS011;49035;48.812;11.762;2022-11-15T02:24:56;17.37;;;10.70;;
22160;SDS011;49035;48.812;11.762;2022-11-15T02:30:12;17.83;;;11.17;;
22160;SDS011;49035;48.812;11.762;2022-11-15T02:32:42;16.23;;;10.53;;
22160;SDS011;49035;48.812;11.762;2022-11-15T02:35:25;20.87;;;12.43;;
22160;SDS011;49035;48.812;11.762;2022-11-15T02:40:46;24.83;;;12.67;;
22160;SDS011;49035;48.812;11.762;2022-11-15T02:43:30;20.80;;;12.60;;
22160;SDS011;49035;48.812;11.762;2022-11-15T02:46:35;21.63;;;12.43;;
22160;SDS011;49035;48.812;11.762;2022-11-15T02:49:34;20.63;;;12.13;;
22160;SDS011;49035;48.812;11.762;2022-11-15T02:52:00;24.27;;;12.43;;
22160;SDS011;49035;48.812;11.762;2022-11-15T02:54:29;20.30;;;13.37;;
22160;SDS011;49035;48.812;11.762;2022-11-15T02:57:01;26.20;;;13.43;;
22160;SDS011;49035;48.812;11.762;2022-11-15T03:03:18;25.93;;;12.63;;
22160;SDS011;49035;48.812;11.762;2022-11-15T03:16:03;22.67;;;12.70;;
22160;SDS011;49035;48.812;11.762;2022-11-15T03:18:33;20.33;;;12.57;;
22160;SDS011;49035;48.812;11.762;2022-11-15T03:21:04;17.47;;;11.00;;
22160;SDS011;49035;48.812;11.762;2022-11-15T03:23:33;21.57;;;12.63;;
22160;SDS011;49035;48.812;11.762;2022-11-15T03:26:01;22.90;;;12.73;;
22160;SDS011;49035;48.812;11.762;2022-11-15T03:28:36;20.93;;;12.10;;
22160;SDS011;49035;48.812;11.762;2022-11-15T03:31:07;20.47;;;12.53;;
22160;SDS011;49035;48.812;11.762;2022-11-15T03:33:54;21.03;;;12.13;;
22160;SDS011;49035;48.812;11.762;2022-11-15T03:36:24;22.20;;;12.37;;
22160;SDS011;49035;48.812;11.762;2022-11-15T03:38:52;21.60;;;12.47;;
22160;SDS011;49035;48.812;11.762;2022-11-15T03:44:30;22.73;;;13.47;;
22160;SDS011;49035;48.812;11.762;2022-11-15T03:49:52;22.60;;;12.93;;
22160;SDS011;49035;48.812;11.762;2022-11-15T03:52:23;25.50;;;13.07;;
22160;SDS011;49035;48.812;11.762;2022-11-15T03:54:50;21.67;;;12.53;;
22160;SDS011;49035;48.812;11.762;2022-11-15T03:57:17;24.77;;;13.27;;
22160;SDS011;49035;48.812;11.762;2022-11-15T03:59:42;21.30;;;12.40;;
22160;SDS011;49035;48.812;11.762;2022-11-15T04:02:08;27.97;;;12.70;;
22160;SDS011;49035;48.812;11.762;2022-11-15T04:04:34;23.43;;;12.97;;
22160;SDS011;49035;48.812;11.762;2022-11-15T04:06:59;23.93;;;11.73;;
22160;SDS011;49035;48.812;11.762;2022-11-15T04:09:25;22.30;;;12.20;;
22160;SDS011;49035;48.812;11.762;2022-11-15T04:11:50;27.40;;;11.97;;
22160;SDS011;49035;48.812;11.762;2022-11-15T04:14:16;26.10;;;12.67;;
22160;SDS011;49035;48.812;11.762;2022-11-15T04:16:42;20.70;;;11.23;;
22160;SDS011;49035;48.812;11.762;2022-11-15T04:19:07;22.70;;;11.90;;
22160;SDS011;49035;48.812;11.762;2022-11-15T04:21:51;22.17;;;11.70;;
22160;SDS011;49035;48.812;11.762;2022-11-15T04:24:55;20.83;;;12.57;;
22160;SDS011;49035;48.812;11.762;2022-11-15T04:27:21;22.70;;;12.40;;
22160;SDS011;49035;48.812;11.762;2022-11-15T04:29:46;22.77;;;12.67;;
22160;SDS011;49035;48.812;11.762;2022-11-15T04:32:12;27.73;;;13.27;;
22160;SDS011;49035;48.812;11.762;2022-11-15T04:34:38;22.57;;;12.60;;
22160;SDS011;49035;48.812;11.762;2022-11-15T04:37:03;24.77;;;13.70;;
22160;SDS011;49035;48.812;11.762;2022-11-15T04:39:38;24.40;;;13.67;;
22160;SDS011;49035;48.812;11.762;2022-11-15T04:42:04;24.37;;;14.30;;
22160;SDS011;49035;48.812;11.762;2022-11-15T04:44:30;23.77;;;14.73;;
22160;SDS011;49035;48.812;11.762;2022-11-15T04:46:56;26.40;;;13.20;;
22160;SDS011;49035;48.812;11.762;2022-11-15T04:49:21;25.90;;;13.63;;
22160;SDS011;49035;48.812;11.762;2022-11-15T04:51:47;22.23;;;12.60;;
22160;SDS011;49035;48.812;11.762;2022-11-15T04:54:13;21.30;;;11.47;;
22160;SDS011;49035;48.812;11.762;2022-11-15T04:56:38;24.63;;;11.97;;
22160;SDS011;49035;48.812;11.762;2022-11-15T04:59:04;21.13;;;11.83;;
22160;SDS011;49035;48.812;11.762;2022-11-15T05:01:30;23.57;;;12.60;;
22160;SDS011;49035;48.812;11.762;2022-11-15T05:03:55;20.47;;;10.50;;
22160;SDS011;49035;48.812;11.762;2022-11-15T05:06:39;18.63;;;11.27;;
22160;SDS011;49035;48.812;11.762;2022-11-15T05:09:05;24.27;;;11.93;;
22160;SDS011;49035;48.812;11.762;2022-11-15T05:11:30;21.50;;;11.27;;
22160;SDS011;49035;48.812;11.762;2022-11-15T05:13:56;20.27;;;10.93;;
22160;SDS011;49035;48.812;11.762;2022-11-15T05:16:22;17.10;;;11.23;;
22160;SDS011;49035;48.812;11.762;2022-11-15T05:18:50;20.33;;;11.37;;
22160;SDS011;49035;48.812;11.762;2022-11-15T05:21:19;19.57;;;11.60;;
22160;SDS011;49035;48.812;11.762;2022-11-15T05:23:45;23.77;;;11.77;;
22160;SDS011;49035;48.812;11.762;2022-11-15T05:26:11;21.20;;;12.37;;
22160;SDS011;49035;48.812;11.762;2022-11-15T05:28:37;20.53;;;12.07;;
22160;SDS011;49035;48.812;11.762;2022-11-15T05:31:10;22.40;;;12.27;;
22160;SDS011;49035;48.812;11.762;2022-11-15T05:33:38;22.60;;;11.30;;
22160;SDS011;49035;48.812;11.762;2022-11-15T05:36:07;24.33;;;12.47;;
22160;SDS011;49035;48.812;11.762;2022-11-15T05:38:41;20.63;;;11.93;;
22160;SDS011;49035;48.812;11.762;2022-11-15T05:41:07;26.67;;;12.03;;
22160;SDS011;49035;48.812;11.762;2022-11-15T05:43:33;23.10;;;11.17;;
22160;SDS011;49035;48.812;11.762;2022-11-15T05:46:01;21.87;;;11.87;;
22160;SDS011;49035;48.812;11.762;2022-11-15T05:48:28;21.77;;;11.70;;
22160;SDS011;49035;48.812;11.762;2022-11-15T05:50:54;20.77;;;10.97;;
22160;SDS011;49035;48.812;11.762;2022-11-15T05:53:20;21.47;;;12.07;;
22160;SDS011;49035;48.812;11.762;2022-11-15T05:55:48;24.17;;;12.77;;
22160;SDS011;49035;48.812;11.762;2022-11-15T05:58:14;24.17;;;11.50;;
22160;SDS011;49035;48.812;11.762;2022-11-15T06:00:40;23.90;;;11.27;;
22160;SDS011;49035;48.812;11.762;2022-11-15T06:03:08;23.50;;;12.20;;
22160;SDS011;49035;48.812;11.762;2022-11-15T06:05:33;21.30;;;11.53;;
22160;SDS011;49035;48.812;11.762;2022-11-15T06:07:59;31.07;;;16.47;;
22160;SDS011;49035;48.812;11.762;2022-11-15T06:10:25;25.07;;;13.63;;
22160;SDS011;49035;48.812;11.762;2022-11-15T06:12:58;28.07;;;14.10;;
22160;SDS011;49035;48.812;11.762;2022-11-15T06:15:24;22.73;;;13.33;;
22160;SDS011;49035;48.812;11.762;2022-11-15T06:17:49;24.27;;;14.23;;
22160;SDS011;49035;48.812;11.762;2022-11-15T06:20:15;20.27;;;12.20;;
22160;SDS011;49035;48.812;11.762;2022-11-15T06:22:41;22.20;;;13.03;;
22160;SDS011;49035;48.812;11.762;2022-11-15T06:25:06;26.73;;;13.30;;
22160;SDS011;49035;48.812;11.762;2022-11-15T06:27:32;23.47;;;12.43;;
22160;SDS011;49035;48.812;11.762;2022-11-15T06:29:58;21.57;;;11.83;;
22160;SDS011;49035;48.812;11.762;2022-11-15T06:32:23;27.43;;;13.03;;
22160;SDS011;49035;48.812;11.762;2022-11-15T06:34:49;18.07;;;11.43;;
22160;SDS011;49035;48.812;11.762;2022-11-15T06:37:15;27.30;;;14.27;;
22160;SDS011;49035;48.812;11.762;2022-11-15T06:39:40;22.53;;;12.73;;
22160;SDS011;49035;48.812;11.762;2022-11-15T06:42:07;21.63;;;11.67;;
22160;SDS011;49035;48.812;11.762;2022-11-15T06:44:33;24.80;;;12.53;;
22160;SDS011;49035;48.812;11.762;2022-11-15T06:46:59;22.77;;;13.00;;
22160;SDS011;49035;48.812;11.762;2022-11-15T06:49:24;29.70;;;15.40;;
22160;SDS011;49035;48.812;11.762;2022-11-15T06:51:50;27.80;;;15.43;;
22160;SDS011;49035;48.812;11.762;2022-11-15T06:54:16;26.10;;;14.23;;
22160;SDS011;49035;48.812;11.762;2022-11-15T06:56:41;28.37;;;14.57;;
22160;SDS011;49035;48.812;11.762;2022-11-15T06:59:07;30.93;;;16.27;;
22160;SDS011;49035;48.812;11.762;2022-11-15T07:01:32;32.90;;;19.07;;
22160;SDS011;49035;48.812;11.762;2022-11-15T07:03:58;28.07;;;15.17;;
22160;SDS011;49035;48.812;11.762;2022-11-15T07:06:24;36.93;;;15.97;;
22160;SDS011;49035;48.812;11.762;2022-11-15T07:08:49;27.47;;;15.27;;
22160;SDS011;49035;48.812;11.762;2022-11-15T07:11:15;26.90;;;13.83;;
22160;SDS011;49035;48.812;11.762;2022-11-15T07:13:40;26.80;;;14.60;;
22160;SDS011;49035;48.812;11.762;2022-11-15T07:16:07;25.83;;;15.17;;
22160;SDS011;49035;48.812;11.762;2022-11-15T07:18:35;25.13;;;15.23;;
22160;SDS011;49035;48.812;11.762;2022-11-15T07:21:02;32.93;;;15.17;;
22160;SDS011;49035;48.812;11.762;2022-11-15T07:23:29;35.73;;;15.53;;
22160;SDS011;49035;48.812;11.762;2022-11-15T07:25:56;28.00;;;14.27;;
22160;SDS011;49035;48.812;11.762;2022-11-15T07:28:23;30.87;;;15.20;;
22160;SDS011;49035;48.812;11.762;2022-11-15T07:30:49;28.47;;;15.07;;
22160;SDS011;49035;48.812;11.762;2022-11-15T07:33:14;23.73;;;14.07;;
22160;SDS011;49035;48.812;11.762;2022-11-15T07:35:40;25.20;;;14.50;;
22160;SDS011;49035;48.812;11.762;2022-11-15T07:38:05;30.33;;;16.63;;
22160;SDS011;49035;48.812;11.762;2022-11-15T07:40:31;29.93;;;15.47;;
22160;SDS011;49035;48.812;11.762;2022-11-15T07:43:00;30.17;;;15.33;;
22160;SDS011;49035;48.812;11.762;2022-11-15T07:45:27;29.57;;;16.70;;
22160;SDS011;49035;48.812;11.762;2022-11-15T07:47:53;32.70;;;17.83;;
22160;SDS011;49035;48.812;11.762;2022-11-15T07:50:21;31.90;;;17.73;;
22160;SDS011;49035;48.812;11.762;2022-11-15T07:52:47;34.40;;;17.73;;
22160;SDS011;49035;48.812;11.762;2022-11-15T07:55:22;31.07;;;15.80;;
22160;SDS011;49035;48.812;11.762;2022-11-15T07:57:49;33.43;;;17.87;;
22160;SDS011;49035;48.812;11.762;2022-11-15T08:00:14;29.90;;;17.30;;
22160;SDS011;49035;48.812;11.762;2022-11-15T08:02:40;42.60;;;18.10;;
22160;SDS011;49035;48.812;11.762;2022-11-15T08:05:06;42.20;;;19.57;;
22160;SDS011;49035;48.812;11.762;2022-11-15T08:07:32;36.23;;;19.27;;
22160;SDS011;49035;48.812;11.762;2022-11-15T08:09:58;40.37;;;17.63;;
22160;SDS011;49035;48.812;11.762;2022-11-15T08:12:26;42.17;;;19.73;;
22160;SDS011;49035;48.812;11.762;2022-11-15T08:14:55;45.50;;;21.90;;
22160;SDS011;49035;48.812;11.762;2022-11-15T08:17:21;45.67;;;21.77;;
22160;SDS011;49035;48.812;11.762;2022-11-15T08:19:48;46.67;;;20.97;;
22160;SDS011;49035;48.812;11.762;2022-11-15T08:22:14;50.70;;;21.37;;
22160;SDS011;49035;48.812;11.762;2022-11-15T08:24:39;56.43;;;24.27;;
22160;SDS011;49035;48.812;11.762;2022-11-15T08:27:05;50.40;;;23.63;;
22160;SDS011;49035;48.812;11.762;2022-11-15T08:29:39;53.93;;;23.87;;
22160;SDS011;49035;48.812;11.762;2022-11-15T08:32:06;56.23;;;24.37;;
22160;SDS011;49035;48.812;11.762;2022-11-15T08:34:32;52.17;;;25.80;;
22160;SDS011;49035;48.812;11.762;2022-11-15T08:36:58;59.40;;;27.07;;
22160;SDS011;49035;48.812;11.762;2022-11-15T08:39:23;66.60;;;26.13;;
22160;SDS011;49035;48.812;11.762;2022-11-15T08:41:49;60.33;;;26.53;;
22160;SDS011;49035;48.812;11.762;2022-11-15T08:44:14;61.33;;;26.30;;
22160;SDS011;49035;48.812;11.762;2022-11-15T08:46:40;67.90;;;28.93;;
22160;SDS011;49035;48.812;11.762;2022-11-15T08:49:06;68.93;;;28.53;;
22160;SDS011;49035;48.812;11.762;2022-11-15T08:51:31;63.90;;;28.70;;
22160;SDS011;49035;48.812;11.762;2022-11-15T08:53:57;67.20;;;29.63;;
22160;SDS011;49035;48.812;11.762;2022-11-15T08:56:22;65.70;;;27.70;;
22160;SDS011;49035;48.812;11.762;2022-11-15T08:58:48;69.90;;;28.57;;
22160;SDS011;49035;48.812;11.762;2022-11-15T09:01:17;68.33;;;28.67;;
22160;SDS011;49035;48.812;11.762;2022-11-15T09:03:44;68.80;;;30.20;;
22160;SDS011;49035;48.812;11.762;2022-11-15T09:06:10;78.90;;;31.70;;
22160;SDS011;49035;48.812;11.762;2022-11-15T09:08:36;70.77;;;31.13;;
22160;SDS011;49035;48.812;11.762;2022-11-15T09:11:03;70.70;;;31.23;;
22160;SDS011;49035;48.812;11.762;2022-11-15T09:13:29;73.50;;;31.60;;
22160;SDS011;49035;48.812;11.762;2022-11-15T09:15:59;62.53;;;29.83;;
22160;SDS011;49035;48.812;11.762;2022-11-15T09:18:25;75.80;;;31.83;;
22160;SDS011;49035;48.812;11.762;2022-11-15T09:20:54;67.27;;;31.53;;
22160;SDS011;49035;48.812;11.762;2022-11-15T09:23:21;78.13;;;32.67;;
22160;SDS011;49035;48.812;11.762;2022-11-15T09:25:47;73.57;;;32.03;;
22160;SDS011;49035;48.812;11.762;2022-11-15T09:28:13;59.17;;;30.00;;
22160;SDS011;49035;48.812;11.762;2022-11-15T09:30:39;64.90;;;30.77;;
22160;SDS011;49035;48.812;11.762;2022-11-15T09:33:08;65.10;;;29.47;;
22160;SDS011;49035;48.812;11.762;2022-11-15T09:35:35;61.43;;;28.37;;
22160;SDS011;49035;48.812;11.762;2022-11-15T09:38:01;64.93;;;29.00;;
22160;SDS011;49035;48.812;11.762;2022-11-15T09:40:27;65.87;;;29.00;;
22160;SDS011;49035;48.812;11.762;2022-11-15T09:45:24;54.13;;;27.73;;
22160;SDS011;49035;48.812;11.762;2022-11-15T09:48:15;48.30;;;24.63;;
22160;SDS011;49035;48.812;11.762;2022-11-15T09:50:50;45.10;;;23.47;;
22160;SDS011;49035;48.812;11.762;2022-11-15T09:56:26;34.67;;;20.67;;
22160;SDS011;49035;48.812;11.762;2022-11-15T10:04:20;32.33;;;18.83;;
22160;SDS011;49035;48.812;11.762;2022-11-15T10:07:00;25.38;;;17.02;;
22160;SDS011;49035;48.812;11.762;2022-11-15T10:12:33;26.55;;;17.90;;
22160;SDS011;49035;48.812;11.762;2022-11-15T10:15:02;27.40;;;17.40;;
22160;SDS011;49035;48.812;11.762;2022-11-15T10:20:30;23.25;;;15.75;;
22160;SDS011;49035;48.812;11.762;2022-11-15T10:23:06;19.88;;;13.30;;
22160;SDS011;49035;48.812;11.762;2022-11-15T10:25:37;24.67;;;13.07;;
22160;SDS011;49035;48.812;11.762;2022-11-15T10:28:16;17.02;;;11.68;;
22160;SDS011;49035;48.812;11.762;2022-11-15T10:30:51;16.63;;;11.88;;
22160;SDS011;49035;48.812;11.762;2022-11-15T10:33:26;14.95;;;11.05;;
22160;SDS011;49035;48.812;11.762;2022-11-15T10:41:16;15.02;;;10.82;;
22160;SDS011;49035;48.812;11.762;2022-11-15T10:46:28;16.92;;;10.30;;
22160;SDS011;49035;48.812;11.762;2022-11-15T10:48:54;14.70;;;10.30;;
22160;SDS011;49035;48.812;11.762;2022-11-15T10:51:47;15.07;;;11.00;;
22160;SDS011;49035;48.812;11.762;2022-11-15T10:57:00;20.17;;;11.75;;
22160;SDS011;49035;48.812;11.762;2022-11-15T10:59:37;17.77;;;11.85;;
22160;SDS011;49035;48.812;11.762;2022-11-15T11:02:21;13.93;;;10.38;;
22160;SDS011;49035;48.812;11.762;2022-11-15T11:05:03;15.95;;;11.18;;
22160;SDS011;49035;48.812;11.762;2022-11-15T11:07:32;12.10;;;9.80;;
22160;SDS011;49035;48.812;11.762;2022-11-15T11:12:32;16.35;;;10.75;;
22160;SDS011;49035;48.812;11.762;2022-11-15T11:15:05;16.13;;;10.13;;
22160;SDS011;49035;48.812;11.762;2022-11-15T11:20:54;16.33;;;10.95;;
22160;SDS011;49035;48.812;11.762;2022-11-15T11:23:42;17.27;;;11.25;;
22160;SDS011;49035;48.812;11.762;2022-11-15T11:26:29;18.23;;;11.07;;
22160;SDS011;49035;48.812;11.762;2022-11-15T11:37:31;14.60;;;10.35;;
22160;SDS011;49035;48.812;11.762;2022-11-15T11:50:44;14.10;;;10.50;;
22160;SDS011;49035;48.812;11.762;2022-11-15T11:53:17;15.55;;;10.18;;
22160;SDS011;49035;48.812;11.762;2022-11-15T11:55:52;13.45;;;9.70;;
22160;SDS011;49035;48.812;11.762;2022-11-15T12:03:44;13.00;;;10.13;;
22160;SDS011;49035;48.812;11.762;2022-11-15T12:09:14;13.32;;;10.25;;
22160;SDS011;49035;48.812;11.762;2022-11-15T12:14:40;13.10;;;9.80;;
22160;SDS011;49035;48.812;11.762;2022-11-15T12:17:11;14.50;;;10.02;;
22160;SDS011;49035;48.812;11.762;2022-11-15T12:19:37;14.88;;;9.85;;
22160;SDS011;49035;48.812;11.762;2022-11-15T12:22:05;12.32;;;9.50;;
22160;SDS011;49035;48.812;11.762;2022-11-15T12:24:48;17.10;;;9.95;;
22160;SDS011;49035;48.812;11.762;2022-11-15T12:27:41;15.07;;;9.55;;
22160;SDS011;49035;48.812;11.762;2022-11-15T12:30:19;13.15;;;9.45;;
22160;SDS011;49035;48.812;11.762;2022-11-15T12:32:51;12.77;;;9.45;;
22160;SDS011;49035;48.812;11.762;2022-11-15T12:35:27;14.85;;;9.73;;
22160;SDS011;49035;48.812;11.762;2022-11-15T12:38:02;12.57;;;9.68;;
22160;SDS011;49035;48.812;11.762;2022-11-15T12:40:36;14.93;;;9.93;;
22160;SDS011;49035;48.812;11.762;2022-11-15T12:45:41;13.95;;;9.80;;
22160;SDS011;49035;48.812;11.762;2022-11-15T12:56:35;14.02;;;10.13;;
22160;SDS011;49035;48.812;11.762;2022-11-15T13:01:08;14.40;;;10.10;;
22160;SDS011;49035;48.812;11.762;2022-11-15T13:03:35;14.02;;;9.52;;
22160;SDS011;49035;48.812;11.762;2022-11-15T13:06:34;14.25;;;10.23;;
22160;SDS011;49035;48.812;11.762;2022-11-15T13:09:49;15.15;;;9.98;;
22160;SDS011;49035;48.812;11.762;2022-11-15T13:11:59;13.10;;;9.88;;
22160;SDS011;49035;48.812;11.762;2022-11-15T13:19:48;16.80;;;10.25;;
22160;SDS011;49035;48.812;11.762;2022-11-15T13:22:17;15.75;;;10.60;;
22160;SDS011;49035;48.812;11.762;2022-11-15T13:25:02;13.75;;;10.13;;
22160;SDS011;49035;48.812;11.762;2022-11-15T13:27:28;12.70;;;9.90;;
22160;SDS011;49035;48.812;11.762;2022-11-15T13:29:54;15.52;;;10.57;;
22160;SDS011;49035;48.812;11.762;2022-11-15T13:32:20;13.13;;;9.93;;
22160;SDS011;49035;48.812;11.762;2022-11-15T13:34:47;14.57;;;9.95;;
22160;SDS011;49035;48.812;11.762;2022-11-15T13:39:46;15.07;;;9.70;;
22160;SDS011;49035;48.812;11.762;2022-11-15T13:42:15;14.93;;;10.20;;
22160;SDS011;49035;48.812;11.762;2022-11-15T13:44:58;13.40;;;9.45;;
22160;SDS011;49035;48.812;11.762;2022-11-15T13:47:26;16.45;;;9.98;;
22160;SDS011;49035;48.812;11.762;2022-11-15T13:49:53;13.70;;;10.07;;
22160;SDS011;49035;48.812;11.762;2022-11-15T13:52:22;12.45;;;9.27;;
22160;SDS011;49035;48.812;11.762;2022-11-15T13:55:01;15.20;;;10.48;;
22160;SDS011;49035;48.812;11.762;2022-11-15T13:57:48;12.38;;;9.25;;
22160;SDS011;49035;48.812;11.762;2022-11-15T14:06:02;12.65;;;9.60;;
22160;SDS011;49035;48.812;11.762;2022-11-15T14:08:35;13.15;;;9.68;;
22160;SDS011;49035;48.812;11.762;2022-11-15T14:14:01;14.18;;;9.23;;
22160;SDS011;49035;48.812;11.762;2022-11-15T14:16:34;16.02;;;10.25;;
22160;SDS011;49035;48.812;11.762;2022-11-15T14:19:05;12.15;;;9.88;;
22160;SDS011;49035;48.812;11.762;2022-11-15T14:21:34;17.23;;;9.52;;
22160;SDS011;49035;48.812;11.762;2022-11-15T14:24:20;12.75;;;9.15;;
22160;SDS011;49035;48.812;11.762;2022-11-15T14:26:47;13.15;;;9.50;;
22160;SDS011;49035;48.812;11.762;2022-11-15T14:29:26;12.85;;;9.48;;
22160;SDS011;49035;48.812;11.762;2022-11-15T14:31:53;13.43;;;9.50;;
22160;SDS011;49035;48.812;11.762;2022-11-15T14:34:37;11.80;;;9.32;;
22160;SDS011;49035;48.812;11.762;2022-11-15T14:37:03;12.73;;;9.02;;
22160;SDS011;49035;48.812;11.762;2022-11-15T14:39:28;13.60;;;8.95;;
22160;SDS011;49035;48.812;11.762;2022-11-15T14:41:54;23.60;;;10.32;;
22160;SDS011;49035;48.812;11.762;2022-11-15T14:44:19;13.52;;;8.93;;
22160;SDS011;49035;48.812;11.762;2022-11-15T14:46:46;15.23;;;9.82;;
22160;SDS011;49035;48.812;11.762;2022-11-15T14:49:13;10.43;;;8.18;;
22160;SDS011;49035;48.812;11.762;2022-11-15T14:51:40;14.55;;;9.80;;
22160;SDS011;49035;48.812;11.762;2022-11-15T14:54:08;14.43;;;9.40;;
22160;SDS011;49035;48.812;11.762;2022-11-15T14:56:35;13.35;;;8.85;;
22160;SDS011;49035;48.812;11.762;2022-11-15T14:59:01;13.05;;;9.57;;
22160;SDS011;49035;48.812;11.762;2022-11-15T15:01:26;11.35;;;9.10;;
22160;SDS011;49035;48.812;11.762;2022-11-15T15:03:52;16.88;;;10.05;;
22160;SDS011;49035;48.812;11.762;2022-11-15T15:06:22;13.25;;;9.70;;
22160;SDS011;49035;48.812;11.762;2022-11-15T15:08:47;15.77;;;10.70;;
22160;SDS011;49035;48.812;11.762;2022-11-15T15:11:28;12.95;;;9.88;;
22160;SDS011;49035;48.812;11.762;2022-11-15T15:13:55;14.15;;;10.05;;
22160;SDS011;49035;48.812;11.762;2022-11-15T15:16:23;14.32;;;9.57;;
22160;SDS011;49035;48.812;11.762;2022-11-15T15:18:49;15.63;;;10.80;;
22160;SDS011;49035;48.812;11.762;2022-11-15T15:21:25;18.73;;;10.25;;
22160;SDS011;49035;48.812;11.762;2022-11-15T15:23:52;16.75;;;11.68;;
22160;SDS011;49035;48.812;11.762;2022-11-15T15:26:23;16.55;;;11.38;;
22160;SDS011;49035;48.812;11.762;2022-11-15T15:28:48;17.67;;;11.57;;
22160;SDS011;49035;48.812;11.762;2022-11-15T15:31:16;20.90;;;12.27;;
22160;SDS011;49035;48.812;11.762;2022-11-15T15:33:41;19.45;;;12.32;;
22160;SDS011;49035;48.812;11.762;2022-11-15T15:36:10;15.82;;;11.38;;
22160;SDS011;49035;48.812;11.762;2022-11-15T15:38:37;15.27;;;11.25;;
22160;SDS011;49035;48.812;11.762;2022-11-15T15:41:07;18.10;;;11.25;;
22160;SDS011;49035;48.812;11.762;2022-11-15T15:43:37;15.63;;;11.52;;
22160;SDS011;49035;48.812;11.762;2022-11-15T15:46:02;18.02;;;12.05;;
22160;SDS011;49035;48.812;11.762;2022-11-15T15:48:28;17.35;;;12.02;;
22160;SDS011;49035;48.812;11.762;2022-11-15T15:50:54;20.17;;;12.88;;
22160;SDS011;49035;48.812;11.762;2022-11-15T15:53:19;26.27;;;13.30;;
22160;SDS011;49035;48.812;11.762;2022-11-15T15:55:45;23.95;;;13.30;;
22160;SDS011;49035;48.812;11.762;2022-11-15T15:58:11;18.60;;;13.02;;
22160;SDS011;49035;48.812;11.762;2022-11-15T16:00:36;20.25;;;13.60;;
22160;SDS011;49035;48.812;11.762;2022-11-15T16:03:03;24.30;;;13.90;;
22160;SDS011;49035;48.812;11.762;2022-11-15T16:05:29;21.88;;;13.23;;
22160;SDS011;49035;48.812;11.762;2022-11-15T16:07:54;21.80;;;13.75;;
22160;SDS011;49035;48.812;11.762;2022-11-15T16:10:38;23.13;;;14.68;;
22160;SDS011;49035;48.812;11.762;2022-11-15T16:13:04;26.13;;;15.05;;
22160;SDS011;49035;48.812;11.762;2022-11-15T16:15:30;27.02;;;14.40;;
22160;SDS011;49035;48.812;11.762;2022-11-15T16:17:57;28.70;;;16.35;;
22160;SDS011;49035;48.812;11.762;2022-11-15T16:20:37;18.87;;;13.30;;
22160;SDS011;49035;48.812;11.762;2022-11-15T16:23:07;17.73;;;12.27;;
22160;SDS011;49035;48.812;11.762;2022-11-15T16:25:45;25.50;;;13.23;;
22160;SDS011;49035;48.812;11.762;2022-11-15T16:30:47;24.73;;;15.53;;